Time;durP1;ratioP1;P1;durP2;ratioP2;P2;SDS_P1;SDS_P2;PMS_P1;PMS_P2;Temp;Humidity;BMP_temperature;BMP_pressure;BME280_temperature;BME280_humidity;BME280_pressure;Samples;Min_cycle;Max_cycle;Signal;HPM_P1;HPM_P2
2021/03/25 00:01:57;;;;;;;7.97;7.20;;;1.20;69.30;;;;;;5182930;28;20127;-70
2021/03/25 00:04:28;;;;;;;7.97;6.70;;;1.20;69.30;;;;;;5184991;28;20052;-70
2021/03/25 00:07:01;;;;;;;7.45;6.85;;;1.20;68.30;;;;;;5198990;28;20046;-70
2021/03/25 00:09:37;;;;;;;7.28;6.57;;;1.20;68.50;;;;;;5186789;28;20092;-69
2021/03/25 00:12:09;;;;;;;7.93;7.22;;;1.20;68.90;;;;;;5186191;28;20111;-69
2021/03/25 00:14:41;;;;;;;7.78;6.97;;;1.20;69.80;;;;;;5183026;28;20451;-70
2021/03/25 00:17:13;;;;;;;7.50;6.90;;;1.20;69.20;;;;;;5179899;28;20392;-69
2021/03/25 00:19:45;;;;;;;7.88;7.07;;;1.20;68.80;;;;;;5186702;28;20396;-70
2021/03/25 00:22:16;;;;;;;8.23;7.50;;;1.10;68.80;;;;;;5185328;28;20038;-69
2021/03/25 00:24:48;;;;;;;7.72;7.00;;;1.10;69.80;;;;;;5186576;28;20084;-69
2021/03/25 00:27:19;;;;;;;8.35;7.43;;;1.10;69.20;;;;;;5184405;28;20077;-69
2021/03/25 00:29:51;;;;;;;7.97;6.82;;;1.10;69.30;;;;;;5183380;28;20069;-70
2021/03/25 00:32:22;;;;;;;6.95;6.35;;;1.10;69.10;;;;;;5186784;28;20061;-70
2021/03/25 00:34:54;;;;;;;7.63;6.90;;;1.10;68.40;;;;;;5182503;28;20048;-70
2021/03/25 00:37:26;;;;;;;7.97;7.28;;;1.10;68.60;;;;;;5181132;28;20072;-69
2021/03/25 00:39:57;;;;;;;7.70;7.00;;;1.00;68.30;;;;;;5182177;28;20124;-70
2021/03/25 00:42:28;;;;;;;7.53;6.82;;;1.00;68.50;;;;;;5186739;28;20073;-69
2021/03/25 00:45:01;;;;;;;7.70;6.43;;;1.00;68.80;;;;;;5186691;28;20490;-69
2021/03/25 00:47:32;;;;;;;7.38;6.68;;;1.00;68.70;;;;;;5186385;28;20171;-69
2021/03/25 00:50:17;;;;;;;7.40;6.80;;;1.00;68.50;;;;;;5186231;28;20514;-69
2021/03/25 00:52:48;;;;;;;7.32;6.63;;;1.00;67.90;;;;;;5187646;28;20050;-69
2021/03/25 00:55:21;;;;;;;7.38;6.68;;;1.10;68.00;;;;;;5187296;28;20072;-69
2021/03/25 00:57:53;;;;;;;7.80;7.10;;;1.20;67.50;;;;;;5179314;28;20046;-69
2021/03/25 01:00:28;;;;;;;7.10;6.50;;;1.20;67.60;;;;;;5186274;28;20050;-67
2021/03/25 01:03:00;;;;;;;7.63;6.93;;;1.20;66.80;;;;;;5189028;28;20123;-68
2021/03/25 01:05:32;;;;;;;8.27;7.47;;;1.20;66.90;;;;;;5184275;28;20041;-68
2021/03/25 01:08:04;;;;;;;8.02;7.30;;;1.20;67.10;;;;;;5192136;28;20053;-68
2021/03/25 01:10:44;;;;;;;8.80;7.30;;;1.00;67.80;;;;;;5194112;28;20085;-69
2021/03/25 01:13:30;;;;;;;8.07;7.38;;;0.90;68.40;;;;;;5186102;28;20474;-69
2021/03/25 01:16:04;;;;;;;8.02;7.07;;;0.80;68.40;;;;;;5194122;28;20041;-68
2021/03/25 01:18:36;;;;;;;7.60;6.93;;;0.80;68.60;;;;;;5183909;28;20141;-69
2021/03/25 01:21:08;;;;;;;9.50;8.40;;;0.80;68.70;;;;;;5188106;28;20515;-70
2021/03/25 01:23:40;;;;;;;7.85;7.15;;;0.80;68.60;;;;;;5186519;28;20144;-69
2021/03/25 01:26:12;;;;;;;7.55;6.75;;;0.80;68.80;;;;;;5199337;28;20073;-69
2021/03/25 01:28:44;;;;;;;7.30;6.60;;;0.80;68.90;;;;;;5201777;28;20046;-69
2021/03/25 01:31:15;;;;;;;8.73;6.90;;;0.80;69.50;;;;;;5187319;28;20056;-69
2021/03/25 01:33:47;;;;;;;7.75;6.97;;;0.90;68.10;;;;;;5188830;28;20987;-68
2021/03/25 01:36:20;;;;;;;7.47;6.72;;;0.90;68.50;;;;;;5189850;28;20539;-69
2021/03/25 01:38:52;;;;;;;7.85;7.05;;;0.90;68.30;;;;;;5186131;28;20053;-68
2021/03/25 01:41:33;;;;;;;8.00;7.30;;;0.80;68.40;;;;;;5186706;28;20056;-69
2021/03/25 01:44:06;;;;;;;7.47;6.78;;;0.80;68.30;;;;;;5189819;28;20115;-68
2021/03/25 01:46:40;;;;;;;7.55;6.85;;;0.80;68.00;;;;;;5182940;28;21055;-69
2021/03/25 01:49:15;;;;;;;7.68;6.97;;;0.80;68.00;;;;;;5187941;28;20162;-69
2021/03/25 01:51:51;;;;;;;7.40;6.75;;;0.80;67.80;;;;;;5185511;28;20588;-68
2021/03/25 01:54:54;;;;;;;7.53;6.93;;;0.80;67.80;;;;;;5181836;28;20072;-68
2021/03/25 01:58:13;;;;;;;8.00;7.20;;;0.80;67.60;;;;;;5183082;28;20062;-69
2021/03/25 02:00:48;;;;;;;7.97;7.20;;;0.90;67.80;;;;;;5200703;28;20161;-69
2021/03/25 02:03:41;;;;;;;7.53;6.88;;;0.80;67.70;;;;;;5186573;28;20037;-69
2021/03/25 02:06:30;;;;;;;8.88;6.97;;;0.80;67.80;;;;;;5182001;28;20068;-69
2021/03/25 02:09:27;;;;;;;8.13;7.43;;;0.80;68.10;;;;;;5188646;28;20054;-69
2021/03/25 02:12:44;;;;;;;7.65;6.95;;;0.80;66.90;;;;;;5192103;28;20038;-68
2021/03/25 02:15:32;;;;;;;7.60;6.90;;;0.80;66.80;;;;;;5193356;28;20088;-68
2021/03/25 02:18:18;;;;;;;7.53;6.70;;;0.80;66.80;;;;;;5194334;28;20058;-69
2021/03/25 02:21:11;;;;;;;7.75;7.13;;;0.80;67.00;;;;;;5184114;28;20407;-68
2021/03/25 02:23:54;;;;;;;7.70;7.00;;;0.80;66.80;;;;;;5215445;28;20812;-69
2021/03/25 02:26:33;;;;;;;7.97;7.20;;;0.80;67.10;;;;;;5193971;28;20522;-68
2021/03/25 02:29:14;;;;;;;7.70;7.00;;;0.70;67.10;;;;;;5190029;28;20052;-68
2021/03/25 02:31:53;;;;;;;7.78;7.07;;;0.70;67.20;;;;;;5183414;28;20046;-68
2021/03/25 02:34:33;;;;;;;8.27;7.32;;;0.70;66.50;;;;;;5182226;28;20053;-69
2021/03/25 02:37:08;;;;;;;8.15;7.35;;;0.70;66.40;;;;;;5199091;28;20053;-69
2021/03/25 02:39:50;;;;;;;7.50;6.80;;;0.60;67.00;;;;;;5185111;28;20054;-70
2021/03/25 02:42:52;;;;;;;7.40;6.70;;;0.50;67.70;;;;;;5202989;28;20076;-69
2021/03/25 02:45:27;;;;;;;7.55;6.85;;;0.50;67.40;;;;;;5184940;28;20062;-69
2021/03/25 02:48:08;;;;;;;7.80;7.10;;;0.60;67.10;;;;;;5160300;28;20428;-70
2021/03/25 02:50:47;;;;;;;7.82;7.15;;;0.60;67.00;;;;;;5196159;28;20049;-69
2021/03/25 02:53:36;;;;;;;8.45;6.70;;;0.50;67.20;;;;;;5163612;28;20073;-70
2021/03/25 02:56:14;;;;;;;8.55;7.78;;;0.50;67.20;;;;;;5173638;28;20071;-68
2021/03/25 02:58:54;;;;;;;7.68;6.97;;;0.60;66.70;;;;;;5193118;28;20077;-70
2021/03/25 03:01:27;;;;;;;7.70;7.00;;;0.60;67.00;;;;;;5179987;28;20042;-69
2021/03/25 03:04:05;;;;;;;7.45;6.75;;;0.70;66.70;;;;;;5182628;28;20095;-68
2021/03/25 03:07:00;;;;;;;8.13;7.35;;;0.60;66.50;;;;;;5189894;28;20053;-68
2021/03/25 03:09:39;;;;;;;8.60;7.05;;;0.60;66.70;;;;;;5191452;28;20128;-68
2021/03/25 03:12:21;;;;;;;7.53;6.82;;;0.50;66.60;;;;;;5185998;28;20053;-69
2021/03/25 03:15:09;;;;;;;7.80;7.10;;;0.50;66.70;;;;;;5197607;28;20534;-68
2021/03/25 03:17:59;;;;;;;7.47;6.82;;;0.50;66.90;;;;;;5180967;28;20052;-69
2021/03/25 03:21:02;;;;;;;7.78;7.07;;;0.50;66.80;;;;;;5201209;28;20042;-68
2021/03/25 03:23:51;;;;;;;6.85;6.25;;;0.50;66.50;;;;;;5185890;28;20072;-69
2021/03/25 03:26:31;;;;;;;7.85;6.65;;;0.60;65.90;;;;;;5181776;28;20440;-69
2021/03/25 03:29:06;;;;;;;7.47;6.78;;;0.60;65.90;;;;;;5187047;28;20049;-69
2021/03/25 03:31:45;;;;;;;7.05;6.35;;;0.60;65.80;;;;;;5184209;28;20046;-69
2021/03/25 03:34:33;;;;;;;8.00;7.22;;;0.50;66.30;;;;;;5193751;28;20469;-68
2021/03/25 03:37:22;;;;;;;7.05;6.45;;;0.40;66.30;;;;;;5187966;28;20091;-69
2021/03/25 03:39:58;;;;;;;8.32;7.53;;;0.30;67.30;;;;;;5192121;28;20057;-68
2021/03/25 03:42:44;;;;;;;7.30;6.60;;;0.30;66.80;;;;;;5184868;28;20075;-68
2021/03/25 03:45:22;;;;;;;7.22;6.53;;;0.30;66.70;;;;;;5183333;28;20095;-69
2021/03/25 03:48:15;;;;;;;7.90;7.20;;;0.30;67.30;;;;;;5178460;28;20045;-69
2021/03/25 03:50:51;;;;;;;6.78;6.07;;;0.20;67.40;;;;;;5183291;28;20038;-68
2021/03/25 03:53:26;;;;;;;6.97;6.38;;;0.20;67.30;;;;;;5215087;28;20052;-68
2021/03/25 03:56:21;;;;;;;7.20;6.50;;;0.20;68.10;;;;;;5192714;28;20817;-68
2021/03/25 03:59:00;;;;;;;7.05;6.45;;;0.20;66.40;;;;;;5145619;28;20077;-69
2021/03/25 04:01:42;;;;;;;7.97;7.25;;;0.30;66.10;;;;;;5197971;28;20545;-69
2021/03/25 04:04:31;;;;;;;7.60;6.80;;;0.40;66.00;;;;;;5192966;28;20093;-68
2021/03/25 04:07:23;;;;;;;7.22;6.53;;;0.40;66.20;;;;;;5181866;28;20041;-68
2021/03/25 04:10:14;;;;;;;7.72;7.03;;;0.50;66.40;;;;;;5187516;28;20080;-69
2021/03/25 04:12:53;;;;;;;7.45;6.63;;;0.50;65.70;;;;;;5184541;28;20057;-67
2021/03/25 04:15:29;;;;;;;8.32;7.43;;;0.40;66.00;;;;;;5183906;28;20504;-67
2021/03/25 04:18:27;;;;;;;7.60;6.90;;;0.40;66.50;;;;;;5202566;28;20045;-68
2021/03/25 04:21:34;;;;;;;7.20;6.60;;;0.40;66.20;;;;;;5185728;28;20041;-69
2021/03/25 04:24:14;;;;;;;7.50;6.80;;;0.40;65.60;;;;;;5190306;28;20049;-69
2021/03/25 04:27:04;;;;;;;7.43;6.63;;;0.40;65.70;;;;;;5186877;28;20042;-67
2021/03/25 04:29:58;;;;;;;7.10;6.50;;;0.20;65.80;;;;;;5189000;28;20518;-70
2021/03/25 04:32:29;;;;;;;6.93;6.22;;;0.10;67.20;;;;;;5181691;28;20596;-68
2021/03/25 04:35:02;;;;;;;7.35;6.65;;;0.20;67.00;;;;;;5187040;28;20042;-68
2021/03/25 04:37:34;;;;;;;7.97;6.93;;;0.20;66.30;;;;;;5185577;28;20105;-68
2021/03/25 04:40:13;;;;;;;6.50;5.90;;;0.10;66.30;;;;;;5187132;28;20047;-69
2021/03/25 04:42:46;;;;;;;7.15;6.53;;;0.00;67.40;;;;;;5187671;28;20068;-68
2021/03/25 04:45:45;;;;;;;6.95;6.28;;;0.00;66.70;;;;;;5186833;28;20041;-68
2021/03/25 04:48:22;;;;;;;6.55;5.95;;;0.00;67.20;;;;;;5188197;28;20053;-68
2021/03/25 04:51:17;;;;;;;6.93;6.32;;;0.00;68.30;;;;;;5189551;28;20052;-69
2021/03/25 04:53:51;;;;;;;7.45;6.75;;;0.00;68.40;;;;;;5186558;28;20049;-68
2021/03/25 04:56:23;;;;;;;7.68;6.88;;;0.00;67.40;;;;;;5187602;28;20164;-69
2021/03/25 04:58:59;;;;;;;7.35;6.75;;;0.00;67.30;;;;;;5188357;28;20066;-67
2021/03/25 05:01:31;;;;;;;7.60;6.90;;;0.00;67.90;;;;;;5185139;28;20467;-68
2021/03/25 05:04:05;;;;;;;6.72;6.00;;;0.10;67.00;;;;;;5186294;28;20659;-66
2021/03/25 05:06:46;;;;;;;6.43;5.82;;;0.10;66.20;;;;;;5187886;28;20140;-68
2021/03/25 05:09:21;;;;;;;6.97;6.38;;;0.00;67.30;;;;;;5187075;28;20046;-67
2021/03/25 05:11:54;;;;;;;6.88;6.20;;;0.10;67.10;;;;;;5185414;28;20057;-67
2021/03/25 05:14:27;;;;;;;7.07;6.40;;;0.20;66.50;;;;;;5186654;28;20100;-67
2021/03/25 05:17:28;;;;;;;6.28;5.68;;;0.20;66.20;;;;;;5181813;28;20154;-67
2021/03/25 05:20:11;;;;;;;7.45;6.75;;;0.20;67.00;;;;;;5188341;28;20045;-67
2021/03/25 05:22:58;;;;;;;6.88;6.28;;;0.10;66.40;;;;;;5187848;28;20111;-68
2021/03/25 05:25:41;;;;;;;6.28;5.68;;;0.00;67.10;;;;;;5185322;28;20041;-67
2021/03/25 05:28:23;;;;;;;6.78;6.07;;;0.00;67.80;;;;;;5202966;28;20049;-67
2021/03/25 05:30:55;;;;;;;6.82;6.00;;;0.00;66.70;;;;;;5186794;28;20096;-67
2021/03/25 05:33:31;;;;;;;7.03;6.32;;;0.10;65.90;;;;;;5185049;28;20567;-67
2021/03/25 05:36:07;;;;;;;6.35;5.75;;;0.10;65.60;;;;;;5184155;28;20053;-68
2021/03/25 05:38:39;;;;;;;7.32;5.63;;;0.20;66.70;;;;;;5190379;28;20154;-69
2021/03/25 05:41:40;;;;;;;6.60;5.47;;;0.10;66.00;;;;;;5188340;28;20116;-67
2021/03/25 05:44:45;;;;;;;6.03;5.18;;;0.00;67.70;;;;;;5188858;28;21344;-67
2021/03/25 05:47:27;;;;;;;6.85;5.90;;;0.10;68.10;;;;;;5185246;28;20073;-67
2021/03/25 05:50:29;;;;;;;7.85;5.70;;;0.10;66.90;;;;;;5186267;28;20503;-67
2021/03/25 05:53:22;;;;;;;6.38;5.72;;;0.20;67.10;;;;;;5185859;28;20061;-67
2021/03/25 05:56:20;;;;;;;6.15;5.55;;;0.40;66.50;;;;;;5187544;28;20124;-67
2021/03/25 05:59:03;;;;;;;6.40;5.80;;;0.70;66.60;;;;;;5160069;28;20129;-68
2021/03/25 06:01:39;;;;;;;6.68;5.90;;;0.80;65.60;;;;;;5188448;28;20061;-67
2021/03/25 06:04:30;;;;;;;6.97;6.20;;;0.90;65.00;;;;;;5187173;28;20052;-66
2021/03/25 06:07:16;;;;;;;6.45;5.75;;;1.00;64.50;;;;;;5184300;28;20390;-66
2021/03/25 06:09:58;;;;;;;6.13;5.53;;;1.20;64.60;;;;;;5189459;28;20056;-67
2021/03/25 06:12:40;;;;;;;6.63;5.85;;;1.30;63.90;;;;;;5184586;28;20136;-67
2021/03/25 06:15:27;;;;;;;6.63;5.90;;;1.40;64.10;;;;;;5185779;28;20156;-68
2021/03/25 06:18:22;;;;;;;6.60;5.80;;;1.50;64.10;;;;;;5185813;28;20699;-67
2021/03/25 06:21:31;;;;;;;7.95;6.05;;;1.50;63.30;;;;;;5185510;28;20037;-67
2021/03/25 06:24:25;;;;;;;6.85;5.95;;;1.60;63.50;;;;;;5182709;28;20137;-67
2021/03/25 06:27:25;;;;;;;6.85;5.90;;;1.80;63.10;;;;;;5187345;28;20049;-68
2021/03/25 06:30:03;;;;;;;9.02;6.43;;;2.00;62.10;;;;;;5186669;28;20527;-68
2021/03/25 06:32:56;;;;;;;7.03;6.35;;;2.10;62.10;;;;;;5187944;28;20057;-69
2021/03/25 06:35:57;;;;;;;7.50;6.15;;;2.10;62.50;;;;;;5185757;28;20142;-68
2021/03/25 06:38:43;;;;;;;8.02;6.70;;;2.20;62.20;;;;;;5178420;28;20145;-68
2021/03/25 06:41:23;;;;;;;7.78;6.22;;;2.50;62.20;;;;;;5182397;28;20046;-67
2021/03/25 06:44:11;;;;;;;6.70;6.10;;;2.60;62.00;;;;;;5184586;28;20569;-70
2021/03/25 06:46:50;;;;;;;7.05;6.35;;;2.70;61.90;;;;;;5189512;28;20302;-68
2021/03/25 06:49:44;;;;;;;7.85;6.47;;;2.90;61.40;;;;;;5182302;28;20056;-69
2021/03/25 06:52:34;;;;;;;7.57;6.88;;;3.10;61.20;;;;;;5184671;28;20095;-68
2021/03/25 06:55:12;;;;;;;8.32;7.45;;;3.20;59.60;;;;;;5186177;28;20054;-69
2021/03/25 06:57:55;;;;;;;10.70;7.25;;;3.30;60.70;;;;;;5184229;28;20042;-67
2021/03/25 07:00:30;;;;;;;7.78;7.07;;;3.40;59.80;;;;;;5184405;28;20452;-68
2021/03/25 07:03:05;;;;;;;10.05;8.20;;;3.60;59.30;;;;;;5185339;28;20128;-69
2021/03/25 07:05:38;;;;;;;8.70;7.90;;;3.80;60.20;;;;;;5182514;28;20600;-68
2021/03/25 07:08:23;;;;;;;8.80;7.90;;;4.10;59.20;;;;;;5190908;28;20585;-68
2021/03/25 07:10:58;;;;;;;9.90;8.38;;;4.20;58.30;;;;;;5188126;28;20045;-68
2021/03/25 07:13:40;;;;;;;9.85;8.88;;;4.30;58.00;;;;;;5182867;28;20061;-69
2021/03/25 07:16:13;;;;;;;8.20;7.40;;;4.40;57.00;;;;;;5183975;28;20084;-69
2021/03/25 07:19:11;;;;;;;8.75;7.85;;;4.50;56.90;;;;;;5188524;28;20042;-69
2021/03/25 07:21:44;;;;;;;8.68;7.85;;;4.70;57.10;;;;;;5186700;28;20769;-67
2021/03/25 07:24:35;;;;;;;8.15;7.43;;;4.90;56.80;;;;;;5183340;28;20584;-68
2021/03/25 07:27:14;;;;;;;10.10;8.82;;;4.90;56.90;;;;;;5183578;28;20050;-69
2021/03/25 07:29:58;;;;;;;11.20;9.70;;;5.10;56.30;;;;;;5181285;28;20045;-66
2021/03/25 07:32:45;;;;;;;9.10;8.30;;;5.40;56.30;;;;;;5183019;28;20104;-68
2021/03/25 07:35:25;;;;;;;10.90;8.63;;;5.50;55.00;;;;;;5185211;28;20125;-67
2021/03/25 07:37:59;;;;;;;;;;;5.50;54.60;;;;;;5184371;28;20632;-66
2021/03/25 07:40:37;;;;;;;9.50;8.55;;;5.60;53.60;;;;;;5185410;28;20473;-69
2021/03/25 07:43:28;;;;;;;11.00;8.32;;;5.70;53.70;;;;;;5182808;28;20095;-68
2021/03/25 07:46:16;;;;;;;9.00;8.20;;;5.90;53.10;;;;;;5184918;28;20052;-68
2021/03/25 07:49:19;;;;;;;8.80;8.00;;;6.00;53.40;;;;;;5184115;28;20037;-68
2021/03/25 07:51:54;;;;;;;9.38;8.48;;;6.20;52.60;;;;;;5185419;28;20591;-67
2021/03/25 07:54:30;;;;;;;9.43;8.43;;;6.40;52.50;;;;;;5185377;28;20166;-69
2021/03/25 07:57:12;;;;;;;9.38;8.48;;;6.60;52.10;;;;;;5185181;28;20073;-68
2021/03/25 07:59:47;;;;;;;9.23;8.32;;;6.70;51.10;;;;;;5187168;28;20045;-69
2021/03/25 08:02:35;;;;;;;10.48;9.07;;;6.70;50.00;;;;;;5183127;28;20046;-68
2021/03/25 08:05:29;;;;;;;10.75;8.13;;;6.80;52.50;;;;;;5183094;28;20053;-68
2021/03/25 08:08:05;;;;;;;8.75;7.95;;;7.00;49.20;;;;;;5184241;28;20049;-69
2021/03/25 08:10:41;;;;;;;8.73;7.82;;;7.10;48.20;;;;;;5184328;28;20046;-68
2021/03/25 08:13:26;;;;;;;9.38;8.57;;;7.20;49.20;;;;;;5183747;28;20490;-68
2021/03/25 08:16:08;;;;;;;9.13;8.32;;;7.50;47.50;;;;;;5181894;28;20065;-70
2021/03/25 08:19:05;;;;;;;9.10;8.20;;;7.60;48.10;;;;;;5181764;28;20116;-68
2021/03/25 08:21:58;;;;;;;9.68;8.82;;;7.80;48.70;;;;;;5184747;28;20111;-70
2021/03/25 08:24:54;;;;;;;10.00;9.10;;;8.00;46.40;;;;;;5180765;28;20881;-69
2021/03/25 08:27:35;;;;;;;9.32;8.50;;;8.10;47.50;;;;;;5182064;28;20104;-68
2021/03/25 08:30:18;;;;;;;9.73;8.73;;;8.10;46.50;;;;;;5182703;28;20050;-69
2021/03/25 08:33:33;;;;;;;9.30;8.40;;;8.20;46.20;;;;;;5177831;28;20824;-68
2021/03/25 08:36:23;;;;;;;10.60;8.57;;;8.40;45.40;;;;;;5178942;28;20042;-71
2021/03/25 08:39:05;;;;;;;9.60;8.70;;;8.60;46.60;;;;;;5178673;28;20046;-69
2021/03/25 08:41:40;;;;;;;9.40;8.60;;;8.80;43.30;;;;;;5177010;28;20384;-69
2021/03/25 08:44:34;;;;;;;10.05;9.05;;;8.80;46.30;;;;;;5175588;28;20049;-69
2021/03/25 08:47:22;;;;;;;10.25;9.25;;;8.90;42.30;;;;;;5177276;28;20049;-69
2021/03/25 08:50:24;;;;;;;10.07;9.07;;;9.00;44.40;;;;;;5179499;28;20050;-68
2021/03/25 08:52:58;;;;;;;8.98;8.18;;;9.20;45.10;;;;;;5180652;28;20751;-70
2021/03/25 08:55:34;;;;;;;10.13;9.23;;;9.30;39.40;;;;;;5174605;28;20176;-69
2021/03/25 08:58:26;;;;;;;9.65;8.75;;;9.50;42.90;;;;;;5178214;28;20052;-69
2021/03/25 09:01:02;;;;;;;9.02;8.20;;;9.60;42.80;;;;;;5174645;28;20061;-69
2021/03/25 09:03:41;;;;;;;9.10;8.30;;;9.90;44.40;;;;;;5181272;28;20045;-68
2021/03/25 09:06:25;;;;;;;9.38;8.48;;;10.10;41.40;;;;;;5180937;28;20723;-69
2021/03/25 09:09:17;;;;;;;9.23;8.43;;;10.20;41.60;;;;;;5181959;28;20103;-69
2021/03/25 09:11:48;;;;;;;10.70;9.10;;;10.30;41.40;;;;;;5193183;28;20073;-68
2021/03/25 09:14:22;;;;;;;10.27;9.30;;;10.40;41.80;;;;;;5178013;28;20045;-68
2021/03/25 09:17:16;;;;;;;9.35;8.35;;;10.60;40.00;;;;;;5178238;28;20151;-69
2021/03/25 09:19:51;;;;;;;9.75;8.75;;;10.80;40.60;;;;;;5180947;28;20119;-68
2021/03/25 09:22:59;;;;;;;9.75;8.85;;;10.90;41.00;;;;;;5178499;28;20049;-69
2021/03/25 09:25:37;;;;;;;11.05;8.85;;;11.10;40.10;;;;;;5149054;28;20123;-69
2021/03/25 09:28:20;;;;;;;9.35;8.45;;;11.20;38.50;;;;;;5188006;28;20676;-69
2021/03/25 09:31:06;;;;;;;9.88;8.85;;;11.10;38.60;;;;;;5178893;28;20052;-69
2021/03/25 09:33:50;;;;;;;9.85;8.85;;;11.10;41.80;;;;;;5181261;28;20033;-69
2021/03/25 09:36:22;;;;;;;9.88;8.98;;;11.20;41.20;;;;;;5179340;28;20510;-70
2021/03/25 09:38:59;;;;;;;10.55;9.48;;;11.40;39.90;;;;;;5178193;28;20624;-69
2021/03/25 09:41:32;;;;;;;10.13;9.25;;;11.50;39.60;;;;;;5179285;28;20521;-69
2021/03/25 09:44:10;;;;;;;9.65;8.65;;;11.70;38.50;;;;;;5177860;28;20103;-68
2021/03/25 09:46:41;;;;;;;10.02;8.50;;;11.80;36.90;;;;;;5183842;28;20047;-70
2021/03/25 09:49:27;;;;;;;9.73;8.85;;;11.80;36.30;;;;;;5176805;28;20046;-69
2021/03/25 09:52:07;;;;;;;9.70;8.90;;;11.80;37.00;;;;;;5182750;28;20781;-69
2021/03/25 09:54:54;;;;;;;10.93;9.23;;;12.00;37.60;;;;;;5178196;28;20104;-69
2021/03/25 09:57:32;;;;;;;11.25;10.15;;;12.10;37.20;;;;;;5179310;28;20792;-71
2021/03/25 10:00:21;;;;;;;10.23;9.23;;;12.30;35.40;;;;;;5177438;28;20125;-69
2021/03/25 10:02:56;;;;;;;10.48;9.48;;;12.40;35.40;;;;;;5179817;28;20088;-70
2021/03/25 10:05:31;;;;;;;10.90;10.00;;;12.50;35.60;;;;;;5178488;28;20125;-70
2021/03/25 10:08:09;;;;;;;11.25;10.25;;;12.60;34.90;;;;;;5180349;28;20115;-69
2021/03/25 10:11:26;;;;;;;11.35;10.35;;;12.90;35.40;;;;;;5177837;28;20049;-69
2021/03/25 10:13:57;;;;;;;11.43;10.40;;;13.00;33.50;;;;;;5182183;28;20124;-69
2021/03/25 10:16:49;;;;;;;11.20;10.13;;;13.10;34.90;;;;;;5176955;28;20038;-69
2021/03/25 10:19:47;;;;;;;12.55;11.35;;;13.30;34.00;;;;;;5179807;28;20073;-68
2021/03/25 10:22:20;;;;;;;11.65;10.55;;;13.40;34.20;;;;;;5172991;28;20069;-69
2021/03/25 10:24:55;;;;;;;12.13;10.85;;;13.50;33.70;;;;;;5180799;28;20150;-69
2021/03/25 10:27:36;;;;;;;11.70;10.63;;;13.60;32.70;;;;;;5202569;28;20060;-69
2021/03/25 10:30:26;;;;;;;12.15;10.88;;;13.70;33.90;;;;;;5177785;28;20049;-67
2021/03/25 10:33:02;;;;;;;13.23;11.00;;;13.60;33.60;;;;;;5175183;28;20073;-66
2021/03/25 10:36:15;;;;;;;14.27;11.65;;;13.70;33.60;;;;;;5175715;28;20046;-67
2021/03/25 10:38:54;;;;;;;13.45;12.05;;;13.90;33.70;;;;;;5166133;28;20096;-66
2021/03/25 10:41:35;;;;;;;12.93;11.73;;;14.00;33.90;;;;;;5177459;28;20132;-67
2021/03/25 10:44:23;;;;;;;13.63;12.32;;;14.20;34.00;;;;;;5177619;28;20041;-66
2021/03/25 10:47:01;;;;;;;14.68;13.38;;;14.30;34.60;;;;;;5178190;28;20057;-67
2021/03/25 10:49:44;;;;;;;13.82;12.38;;;14.40;33.90;;;;;;5179122;28;20052;-67
2021/03/25 10:52:31;;;;;;;14.00;12.60;;;14.60;34.20;;;;;;5176270;28;20062;-66
2021/03/25 10:55:13;;;;;;;13.38;12.20;;;14.70;34.50;;;;;;5177516;28;20148;-66
2021/03/25 10:57:49;;;;;;;14.20;12.90;;;14.80;33.20;;;;;;5178894;28;20129;-66
2021/03/25 11:00:30;;;;;;;15.02;13.63;;;14.80;33.60;;;;;;5175514;28;20073;-67
2021/03/25 11:03:42;;;;;;;15.15;13.27;;;14.90;33.60;;;;;;5176843;28;20049;-68
2021/03/25 11:06:24;;;;;;;14.57;13.27;;;14.90;31.50;;;;;;5175207;28;20812;-66
2021/03/25 11:09:07;;;;;;;13.88;12.50;;;15.10;32.60;;;;;;5179877;28;20431;-66
2021/03/25 11:11:39;;;;;;;13.70;12.50;;;15.20;32.80;;;;;;5192260;28;20053;-67
2021/03/25 11:14:32;;;;;;;14.55;13.25;;;15.20;32.70;;;;;;5180124;28;20061;-67
2021/03/25 11:17:19;;;;;;;13.85;12.55;;;15.30;32.00;;;;;;5178100;28;20042;-67
2021/03/25 11:19:59;;;;;;;13.57;12.30;;;15.40;32.30;;;;;;5181019;28;20033;-67
2021/03/25 11:22:33;;;;;;;14.15;12.95;;;15.50;32.10;;;;;;5177017;28;20115;-66
2021/03/25 11:25:11;;;;;;;13.57;12.27;;;15.60;32.10;;;;;;5179273;28;20515;-67
2021/03/25 11:27:45;;;;;;;13.63;12.35;;;15.70;32.50;;;;;;5179569;28;20033;-67
2021/03/25 11:30:42;;;;;;;13.20;11.80;;;15.70;32.30;;;;;;5181656;28;20626;-66
2021/03/25 11:33:24;;;;;;;14.77;13.35;;;15.70;30.90;;;;;;5180614;28;20134;-67
2021/03/25 11:35:58;;;;;;;13.18;11.98;;;15.70;32.00;;;;;;5180229;28;20511;-66
2021/03/25 11:38:35;;;;;;;13.77;12.48;;;15.70;31.40;;;;;;5181080;28;20034;-66
2021/03/25 11:41:09;;;;;;;13.57;12.40;;;15.70;30.60;;;;;;5182219;28;20050;-66
2021/03/25 11:43:53;;;;;;;13.73;12.32;;;15.80;31.50;;;;;;5180227;28;20053;-67
2021/03/25 11:46:26;;;;;;;15.02;13.52;;;15.80;30.30;;;;;;5182400;28;20045;-67
2021/03/25 11:49:21;;;;;;;13.27;12.00;;;15.90;30.40;;;;;;5183344;28;20847;-67
2021/03/25 11:51:58;;;;;;;12.57;11.48;;;16.00;30.30;;;;;;5179282;28;20049;-69
2021/03/25 11:54:36;;;;;;;13.23;12.02;;;16.10;29.70;;;;;;5182334;28;20791;-67
2021/03/25 11:57:08;;;;;;;13.93;12.73;;;16.30;29.60;;;;;;5181351;28;20150;-67
2021/03/25 11:59:40;;;;;;;13.57;12.43;;;16.30;29.10;;;;;;5180312;28;20068;-67
2021/03/25 12:02:21;;;;;;;14.02;12.82;;;16.40;28.70;;;;;;5181136;28;20089;-68
2021/03/25 12:04:53;;;;;;;14.32;13.13;;;16.40;28.90;;;;;;5181687;28;20131;-67
2021/03/25 12:07:27;;;;;;;13.73;12.52;;;16.40;28.50;;;;;;5180350;28;20126;-69
2021/03/25 12:10:21;;;;;;;30.02;26.70;;;16.40;27.20;;;;;;5179093;28;20486;-70
2021/03/25 12:12:52;;;;;;;24.20;21.70;;;16.50;28.50;;;;;;5180102;28;20741;-68
2021/03/25 12:15:23;;;;;;;16.50;15.10;;;16.50;28.30;;;;;;5178190;28;20053;-68
2021/03/25 12:18:01;;;;;;;13.93;12.63;;;16.50;28.10;;;;;;5178854;28;20119;-68
2021/03/25 12:20:36;;;;;;;12.98;11.98;;;16.30;27.10;;;;;;5209254;28;20050;-67
2021/03/25 12:23:14;;;;;;;13.40;12.20;;;16.30;27.40;;;;;;5178406;28;20045;-68
2021/03/25 12:25:49;;;;;;;13.95;12.75;;;16.40;27.00;;;;;;5178052;28;20046;-69
2021/03/25 12:28:21;;;;;;;13.82;12.63;;;16.40;27.00;;;;;;5179291;28;20119;-68
2021/03/25 12:30:54;;;;;;;13.18;11.88;;;16.40;27.40;;;;;;5174380;28;20566;-70
2021/03/25 12:33:37;;;;;;;14.85;13.52;;;16.50;27.90;;;;;;5179141;28;20120;-69
2021/03/25 12:36:09;;;;;;;13.80;12.60;;;16.50;27.50;;;;;;5173710;28;20490;-69
2021/03/25 12:38:41;;;;;;;13.52;12.32;;;16.60;27.50;;;;;;5181133;28;20131;-68
2021/03/25 12:41:40;;;;;;;14.43;13.15;;;16.60;26.90;;;;;;5181739;28;20045;-69
2021/03/25 12:44:13;;;;;;;14.48;13.18;;;16.60;27.10;;;;;;5182418;28;20570;-69
2021/03/25 12:46:55;;;;;;;14.40;13.10;;;16.60;27.50;;;;;;5183755;28;20503;-70
2021/03/25 12:49:27;;;;;;;14.50;13.20;;;16.50;27.50;;;;;;5182273;28;20821;-69
2021/03/25 12:51:59;;;;;;;14.38;13.18;;;16.40;28.00;;;;;;5182305;28;20057;-68
2021/03/25 12:54:31;;;;;;;14.45;13.15;;;16.50;27.50;;;;;;5182082;28;20041;-67
2021/03/25 12:57:04;;;;;;;13.68;12.57;;;16.50;27.70;;;;;;5185272;28;20042;-68
2021/03/25 12:59:41;;;;;;;13.93;12.63;;;16.50;27.60;;;;;;5182060;28;20037;-68
2021/03/25 13:02:12;;;;;;;14.95;13.65;;;16.50;28.00;;;;;;5179901;28;20467;-68
2021/03/25 13:04:44;;;;;;;15.00;13.70;;;16.60;27.90;;;;;;5180189;28;20041;-68
2021/03/25 13:07:16;;;;;;;14.80;13.48;;;16.60;28.40;;;;;;5179743;28;20042;-68
2021/03/25 13:09:47;;;;;;;14.88;13.65;;;16.70;27.80;;;;;;5180781;28;20664;-68
2021/03/25 13:12:23;;;;;;;14.90;13.60;;;16.80;27.80;;;;;;5183496;28;20113;-67
2021/03/25 13:14:55;;;;;;;14.73;13.35;;;16.80;27.70;;;;;;5181544;28;20596;-68
2021/03/25 13:17:27;;;;;;;15.07;13.77;;;16.80;27.50;;;;;;5182651;28;20139;-68
2021/03/25 13:20:07;;;;;;;15.00;13.60;;;16.80;28.20;;;;;;5180344;28;20065;-68
2021/03/25 13:22:38;;;;;;;15.30;14.10;;;16.90;28.10;;;;;;5182626;28;20092;-68
2021/03/25 13:25:18;;;;;;;15.25;13.85;;;16.80;27.30;;;;;;5180815;28;20121;-68
2021/03/25 13:27:49;;;;;;;14.90;13.63;;;16.70;27.80;;;;;;5178729;28;20116;-67
2021/03/25 13:30:21;;;;;;;15.68;14.25;;;16.70;28.20;;;;;;5182050;28;20052;-68
2021/03/25 13:32:53;;;;;;;15.52;14.30;;;16.70;28.30;;;;;;5181432;28;20694;-67
2021/03/25 13:35:27;;;;;;;16.10;14.80;;;16.70;28.20;;;;;;5180955;28;20167;-67
2021/03/25 13:37:58;;;;;;;15.98;14.63;;;16.80;28.70;;;;;;5179753;28;20046;-68
2021/03/25 13:40:32;;;;;;;15.95;14.60;;;16.90;28.50;;;;;;5214478;28;20729;-68
2021/03/25 13:43:07;;;;;;;15.60;14.20;;;16.80;27.90;;;;;;5181769;28;20121;-67
2021/03/25 13:45:38;;;;;;;15.25;14.05;;;16.80;27.70;;;;;;5181725;28;20119;-67
2021/03/25 13:48:10;;;;;;;16.15;14.70;;;16.80;27.50;;;;;;5187341;28;20137;-67
2021/03/25 13:50:59;;;;;;;15.60;14.40;;;17.00;28.70;;;;;;5180159;28;20038;-67
2021/03/25 13:53:31;;;;;;;15.55;14.35;;;17.10;27.40;;;;;;5180233;28;20038;-70
2021/03/25 13:56:03;;;;;;;15.77;14.48;;;17.10;27.70;;;;;;5166010;28;20069;-68
2021/03/25 13:58:34;;;;;;;14.98;13.77;;;17.10;27.70;;;;;;5181091;28;20115;-67
2021/03/25 14:01:06;;;;;;;16.55;15.15;;;17.30;28.20;;;;;;5181092;28;20049;-67